Time;durP1;ratioP1;P1;durP2;ratioP2;P2;SDS_P1;SDS_P2;PMS_P1;PMS_P2;Temp;Humidity;BMP_temperature;BMP_pressure;BME280_temperature;BME280_humidity;BME280_pressure;Samples;Min_cycle;Max_cycle;Signal;HPM_P1;HPM_P2
2022/12/27 00:02:04;;;;;;;9.97;1.60;;;10.60;99.90;;;;;;5064087;28;20183;-78
2022/12/27 00:04:31;;;;;;;2.67;1.20;;;10.60;99.90;;;;;;5050732;28;20184;-77
2022/12/27 00:06:57;;;;;;;4.63;1.40;;;10.60;99.90;;;;;;5065373;28;20264;-77
2022/12/27 00:09:24;;;;;;;3.80;1.50;;;10.50;99.90;;;;;;5062152;28;20666;-78
2022/12/27 00:11:50;;;;;;;3.17;1.30;;;10.50;99.90;;;;;;5047155;28;20185;-78
2022/12/27 00:14:16;;;;;;;3.10;1.40;;;10.50;99.90;;;;;;5050263;28;20215;-78
2022/12/27 00:16:43;;;;;;;3.13;1.20;;;10.50;99.90;;;;;;5072054;28;20187;-78
2022/12/27 00:19:09;;;;;;;3.50;1.10;;;10.40;99.90;;;;;;5068862;28;20183;-78
2022/12/27 00:21:35;;;;;;;2.27;1.10;;;10.50;99.90;;;;;;5069721;28;20209;-78
2022/12/27 00:24:02;;;;;;;6.40;1.37;;;10.60;99.90;;;;;;5050840;28;20730;-78
2022/12/27 00:26:32;;;;;;;1.60;1.20;;;10.60;99.90;;;;;;5067824;28;20186;-78
2022/12/27 00:29:00;;;;;;;2.43;1.03;;;10.60;99.90;;;;;;5092462;28;20689;-78
2022/12/27 00:31:30;;;;;;;5.30;1.10;;;10.70;99.90;;;;;;5071444;28;20678;-77
2022/12/27 00:34:01;;;;;;;1.73;1.20;;;10.60;99.90;;;;;;5069523;28;20230;-78
2022/12/27 00:36:30;;;;;;;1.20;1.07;;;10.60;99.90;;;;;;5058903;28;20178;-78
2022/12/27 00:38:59;;;;;;;2.33;1.20;;;10.50;99.90;;;;;;5071150;28;20252;-78
2022/12/27 00:41:26;;;;;;;1.90;1.20;;;10.40;99.90;;;;;;5069160;28;20182;-78
2022/12/27 00:43:53;;;;;;;5.10;1.30;;;10.30;99.90;;;;;;5070071;28;20924;-78
2022/12/27 00:46:20;;;;;;;4.50;1.53;;;10.30;99.90;;;;;;5076286;28;20281;-78
2022/12/27 00:48:46;;;;;;;3.40;1.30;;;10.30;99.90;;;;;;5074644;28;20916;-78
2022/12/27 00:51:20;;;;;;;1.90;1.10;;;10.20;99.90;;;;;;5058543;28;20197;-78
2022/12/27 00:53:48;;;;;;;2.03;1.10;;;10.20;99.90;;;;;;5065573;28;20250;-78
2022/12/27 00:56:23;;;;;;;4.27;1.37;;;10.10;99.90;;;;;;5069736;28;20660;-78
2022/12/27 00:59:00;;;;;;;4.70;1.13;;;10.10;99.90;;;;;;5068717;28;20186;-78
2022/12/27 01:01:31;;;;;;;2.50;1.10;;;10.00;99.90;;;;;;5055013;28;20742;-77
2022/12/27 01:03:58;;;;;;;2.87;1.10;;;10.00;99.90;;;;;;5069409;28;20186;-77
2022/12/27 01:06:30;;;;;;;3.17;1.03;;;9.90;99.90;;;;;;5062997;28;20497;-77
2022/12/27 01:08:58;;;;;;;3.43;1.37;;;9.80;99.90;;;;;;5052001;28;20195;-77
2022/12/27 01:11:27;;;;;;;2.47;1.23;;;9.80;99.90;;;;;;5033351;28;20194;-77
2022/12/27 01:14:01;;;;;;;3.53;1.20;;;9.50;99.90;;;;;;5047037;28;20245;-77
2022/12/27 01:16:30;;;;;;;1.63;1.27;;;9.50;99.90;;;;;;5070775;28;20582;-77
2022/12/27 01:18:57;;;;;;;1.97;1.20;;;9.70;99.90;;;;;;5071316;28;20191;-77
2022/12/27 01:21:24;;;;;;;3.03;1.30;;;9.90;99.90;;;;;;5053186;28;20239;-78
2022/12/27 01:23:51;;;;;;;1.97;1.03;;;10.00;99.90;;;;;;5069524;28;20199;-77
2022/12/27 01:26:21;;;;;;;2.10;1.17;;;10.20;99.90;;;;;;5068749;28;21043;-77
2022/12/27 01:28:48;;;;;;;3.80;1.30;;;10.30;99.90;;;;;;5085106;28;20285;-77
2022/12/27 01:31:19;;;;;;;3.90;1.30;;;10.40;99.90;;;;;;5052698;28;20179;-77
2022/12/27 01:33:46;;;;;;;6.77;1.23;;;10.50;99.90;;;;;;5062604;28;20284;-77
2022/12/27 01:36:18;;;;;;;3.80;1.50;;;10.60;99.90;;;;;;5065085;28;20647;-77
2022/12/27 01:38:46;;;;;;;5.00;1.40;;;10.50;99.90;;;;;;5052408;28;20622;-77
2022/12/27 01:44:38;;;;;;;3.10;1.10;;;10.70;99.90;;;;;;5070241;28;20178;-77
2022/12/27 01:47:45;;;;;;;3.67;1.30;;;10.80;99.90;;;;;;5069035;28;20252;-77
2022/12/27 01:50:29;;;;;;;2.07;1.13;;;10.70;99.90;;;;;;5069544;28;20210;-77
2022/12/27 01:53:12;;;;;;;8.00;1.33;;;10.70;99.90;;;;;;5068310;28;20336;-77
2022/12/27 01:56:04;;;;;;;4.70;1.47;;;10.70;99.90;;;;;;5068198;28;20198;-77
2022/12/27 01:58:37;;;;;;;4.67;1.27;;;10.70;99.90;;;;;;5056943;28;20179;-77
2022/12/27 02:01:08;;;;;;;4.03;1.63;;;10.70;99.90;;;;;;5032457;28;20183;-77
2022/12/27 02:03:54;;;;;;;5.33;1.20;;;10.70;99.90;;;;;;5078634;28;20205;-76
2022/12/27 02:06:22;;;;;;;2.57;1.23;;;10.70;99.90;;;;;;5067868;28;20241;-77
2022/12/27 02:09:25;;;;;;;3.43;1.43;;;10.70;99.90;;;;;;5063117;28;20202;-78
2022/12/27 02:11:56;;;;;;;3.17;1.20;;;10.70;99.90;;;;;;5062070;28;20193;-77
2022/12/27 02:14:42;;;;;;;3.33;1.23;;;10.70;99.90;;;;;;5073825;28;20218;-77
2022/12/27 02:17:21;;;;;;;3.10;1.33;;;10.70;99.90;;;;;;5079767;28;20191;-77
2022/12/27 02:20:13;;;;;;;3.07;1.37;;;10.70;99.90;;;;;;5052005;28;20243;-77
2022/12/27 02:26:31;;;;;;;4.23;1.30;;;10.70;99.90;;;;;;5066487;28;20244;-77
2022/12/27 02:29:33;;;;;;;2.70;1.30;;;10.70;99.90;;;;;;5038979;28;20191;-77
2022/12/27 02:32:42;;;;;;;1.83;1.20;;;10.60;99.90;;;;;;5049624;28;20266;-77
2022/12/27 02:35:23;;;;;;;2.47;1.20;;;10.60;99.90;;;;;;5032561;28;20194;-78
2022/12/27 02:38:24;;;;;;;5.37;1.20;;;10.50;99.90;;;;;;5053599;28;20183;-78
2022/12/27 02:58:52;;;;;;;2.83;1.30;;;10.40;99.90;;;;;;5082873;28;20190;-78
2022/12/27 03:06:38;;;;;;;2.50;1.23;;;10.40;99.90;;;;;;5084731;28;20700;-78
2022/12/27 03:08:50;;;;;;;2.43;1.30;;;10.40;99.90;;;;;;5045208;28;20191;-78
2022/12/27 03:18:01;;;;;;;2.40;1.30;;;10.50;99.90;;;;;;5063752;28;20640;-78
2022/12/27 03:26:05;;;;;;;4.97;1.40;;;10.50;99.90;;;;;;5058242;28;20182;-78
2022/12/27 03:34:38;;;;;;;1.33;1.00;;;10.70;99.90;;;;;;5084700;28;20206;-78
2022/12/27 03:43:38;;;;;;;2.40;1.20;;;10.60;99.90;;;;;;5096579;28;20690;-78
2022/12/27 03:46:34;;;;;;;3.40;1.40;;;10.60;99.90;;;;;;5056553;28;20272;-78
2022/12/27 03:49:49;;;;;;;3.83;1.20;;;10.50;99.90;;;;;;5059671;28;20674;-78
2022/12/27 03:52:51;;;;;;;1.73;1.20;;;10.50;99.90;;;;;;5066876;28;20202;-78
2022/12/27 03:55:18;;;;;;;1.60;1.00;;;10.60;99.90;;;;;;5056161;28;20200;-77
2022/12/27 03:57:45;;;;;;;2.27;1.20;;;10.60;99.90;;;;;;5072287;28;20185;-77
2022/12/27 04:00:12;;;;;;;4.43;1.30;;;10.60;99.90;;;;;;5077840;28;20187;-78
2022/12/27 04:02:40;;;;;;;3.50;1.20;;;10.50;99.90;;;;;;5071421;28;20187;-78
2022/12/27 04:05:07;;;;;;;3.40;1.17;;;10.50;99.90;;;;;;5079534;28;20179;-78
2022/12/27 04:07:33;;;;;;;2.63;1.20;;;10.40;99.90;;;;;;5079371;28;20306;-78
2022/12/27 04:34:44;;;;;;;5.50;1.40;;;10.30;99.90;;;;;;5065201;28;20191;-77
2022/12/27 04:37:18;;;;;;;2.10;1.30;;;10.30;99.90;;;;;;5050576;28;20780;-78
2022/12/27 04:56:16;;;;;;;4.30;1.43;;;10.40;99.90;;;;;;5076986;28;20186;-78
2022/12/27 05:02:02;;;;;;;1.97;1.27;;;10.40;99.90;;;;;;5079831;28;20218;-78
2022/12/27 05:04:14;;;;;;;2.37;1.20;;;10.50;99.90;;;;;;5075794;28;20636;-77
2022/12/27 05:06:40;;;;;;;2.87;1.20;;;10.40;99.90;;;;;;5050181;28;20191;-77
2022/12/27 05:14:36;;;;;;;1.90;1.40;;;10.30;99.90;;;;;;5064299;28;20329;-78
2022/12/27 05:17:03;;;;;;;1.77;1.20;;;10.20;99.90;;;;;;5085746;28;20214;-78
2022/12/27 05:19:29;;;;;;;1.50;1.17;;;10.10;99.90;;;;;;5069802;28;20277;-77
2022/12/27 05:27:26;;;;;;;1.37;1.00;;;10.00;99.90;;;;;;5069808;28;20214;-78
2022/12/27 05:29:52;;;;;;;2.97;1.30;;;9.90;99.90;;;;;;5071071;28;20248;-77
2022/12/27 05:32:18;;;;;;;2.13;1.60;;;9.80;99.90;;;;;;5052631;28;20281;-77
2022/12/27 05:34:44;;;;;;;2.50;1.37;;;9.70;99.90;;;;;;5052989;28;20190;-77
2022/12/27 05:37:11;;;;;;;2.57;1.30;;;9.60;99.90;;;;;;5053437;28;20656;-77
2022/12/27 05:39:37;;;;;;;2.13;1.20;;;9.50;99.90;;;;;;5052517;28;20231;-77
2022/12/27 05:42:04;;;;;;;1.60;1.20;;;9.40;99.90;;;;;;5069557;28;20185;-77
2022/12/27 05:44:30;;;;;;;4.37;1.40;;;9.40;99.90;;;;;;5070600;28;20179;-77
2022/12/27 05:46:56;;;;;;;2.77;1.43;;;9.30;99.90;;;;;;5069208;28;20183;-77
2022/12/27 05:49:22;;;;;;;1.80;1.30;;;9.20;99.90;;;;;;5055433;28;20335;-77
2022/12/27 05:51:49;;;;;;;1.50;1.17;;;9.10;99.90;;;;;;5074360;28;20329;-77
2022/12/27 05:54:15;;;;;;;2.67;1.40;;;9.00;99.90;;;;;;5061232;28;20694;-78
2022/12/27 05:56:41;;;;;;;4.83;1.53;;;8.90;99.90;;;;;;5067219;28;20191;-77
2022/12/27 05:59:08;;;;;;;4.47;1.60;;;8.90;99.90;;;;;;5041607;28;20264;-77
2022/12/27 06:01:34;;;;;;;2.90;1.67;;;8.90;99.90;;;;;;5048102;28;20183;-77
2022/12/27 06:04:01;;;;;;;3.37;1.80;;;9.00;99.90;;;;;;5074385;28;20190;-77
2022/12/27 06:06:27;;;;;;;2.20;1.33;;;9.00;99.90;;;;;;5075728;28;20193;-77
2022/12/27 06:08:54;;;;;;;2.67;1.47;;;9.10;99.90;;;;;;5080917;28;20555;-77
2022/12/27 06:11:20;;;;;;;2.47;1.67;;;9.20;99.90;;;;;;5087575;28;20190;-78
2022/12/27 06:13:53;;;;;;;2.60;1.63;;;9.20;99.90;;;;;;5061706;28;20221;-77
2022/12/27 06:16:21;;;;;;;4.57;1.37;;;9.30;99.90;;;;;;5057591;28;20524;-77
2022/12/27 06:18:47;;;;;;;4.40;1.50;;;9.40;99.90;;;;;;5056602;28;20235;-77
2022/12/27 06:21:20;;;;;;;2.97;1.50;;;9.70;99.90;;;;;;5060760;28;20183;-77
2022/12/27 06:23:48;;;;;;;1.93;1.10;;;10.00;99.90;;;;;;5076694;28;20921;-77
2022/12/27 06:26:22;;;;;;;1.47;1.13;;;10.10;99.90;;;;;;5059190;28;20211;-78
2022/12/27 06:28:50;;;;;;;2.13;1.20;;;10.20;99.90;;;;;;5052085;28;20201;-78
2022/12/27 06:31:18;;;;;;;2.90;1.30;;;10.20;99.90;;;;;;5070550;28;20187;-78
2022/12/27 06:33:45;;;;;;;1.60;1.10;;;10.10;99.90;;;;;;5045495;28;20199;-78
2022/12/27 06:36:20;;;;;;;2.93;1.40;;;10.00;99.90;;;;;;5086198;28;20210;-78
2022/12/27 06:38:48;;;;;;;2.13;1.10;;;9.90;99.90;;;;;;5064055;28;20223;-77
2022/12/27 06:41:17;;;;;;;2.47;1.60;;;9.90;99.90;;;;;;5069190;28;20193;-77
2022/12/27 06:43:46;;;;;;;3.20;1.37;;;9.90;99.90;;;;;;5072247;28;20287;-78
2022/12/27 06:46:16;;;;;;;4.43;1.60;;;10.00;99.90;;;;;;5059177;28;20546;-78
2022/12/27 06:48:43;;;;;;;6.70;1.70;;;10.00;99.90;;;;;;5043992;28;20194;-78
2022/12/27 06:51:13;;;;;;;2.13;1.60;;;10.00;99.90;;;;;;5078881;28;20205;-77
2022/12/27 06:53:39;;;;;;;4.43;1.40;;;10.00;99.90;;;;;;5078385;28;20224;-77
2022/12/27 06:56:18;;;;;;;2.80;1.40;;;10.00;99.90;;;;;;5073003;28;20187;-77
2022/12/27 06:58:48;;;;;;;2.23;1.23;;;10.00;99.90;;;;;;5068709;28;20198;-77
2022/12/27 07:01:18;;;;;;;2.57;1.50;;;10.10;99.90;;;;;;5072134;28;20858;-78
2022/12/27 07:03:52;;;;;;;2.00;1.40;;;10.20;99.90;;;;;;5068833;28;20193;-77
2022/12/27 07:06:20;;;;;;;3.03;1.63;;;10.20;99.90;;;;;;5062348;28;20914;-78
2022/12/27 07:08:47;;;;;;;2.17;1.50;;;10.20;99.90;;;;;;5077882;28;20243;-77
2022/12/27 07:11:17;;;;;;;1.43;1.30;;;10.30;99.90;;;;;;5061955;28;20183;-77
2022/12/27 07:13:47;;;;;;;2.03;1.50;;;10.40;99.90;;;;;;5051362;28;20210;-77
2022/12/27 07:16:17;;;;;;;2.07;1.40;;;10.60;99.90;;;;;;5081842;28;20183;-77
2022/12/27 07:18:45;;;;;;;3.83;1.57;;;10.70;99.90;;;;;;5081321;28;20221;-77
2022/12/27 07:21:14;;;;;;;4.67;1.50;;;10.70;99.90;;;;;;5062872;28;20193;-77
2022/12/27 07:23:41;;;;;;;2.10;1.50;;;10.70;99.90;;;;;;5082497;28;20290;-77
2022/12/27 07:26:13;;;;;;;3.40;1.40;;;10.70;99.90;;;;;;5080176;28;20273;-78
2022/12/27 07:28:40;;;;;;;5.10;2.67;;;10.60;99.90;;;;;;5072270;28;20183;-78
2022/12/27 07:31:14;;;;;;;2.40;1.50;;;10.60;99.90;;;;;;5072644;28;20191;-77
2022/12/27 07:33:40;;;;;;;2.53;1.50;;;10.70;99.90;;;;;;5073401;28;20223;-78
2022/12/27 07:36:15;;;;;;;8.60;1.63;;;10.80;99.90;;;;;;5070831;28;20186;-77
2022/12/27 07:38:41;;;;;;;1.97;1.50;;;10.90;99.90;;;;;;5081305;28;20970;-78
2022/12/27 07:41:11;;;;;;;3.00;1.40;;;11.00;99.90;;;;;;5053586;28;20178;-78
2022/12/27 07:43:38;;;;;;;3.80;1.43;;;11.00;99.90;;;;;;5077562;28;20247;-77
2022/12/27 07:46:09;;;;;;;2.77;1.50;;;10.90;99.90;;;;;;5056246;28;20588;-78
2022/12/27 07:48:37;;;;;;;3.53;1.70;;;10.90;99.90;;;;;;5055470;28;20277;-78
2022/12/27 07:51:04;;;;;;;2.07;1.40;;;10.90;99.90;;;;;;5054474;28;20190;-78
2022/12/27 07:53:31;;;;;;;1.80;1.27;;;10.80;99.90;;;;;;5078272;28;20250;-78
2022/12/27 07:55:58;;;;;;;2.30;1.50;;;10.80;99.90;;;;;;5056927;28;20187;-78
2022/12/27 07:58:26;;;;;;;2.97;1.30;;;10.80;99.90;;;;;;5055436;28;20175;-78
2022/12/27 08:00:52;;;;;;;2.53;1.30;;;10.80;99.90;;;;;;5053527;28;20193;-77
2022/12/27 08:03:19;;;;;;;5.60;1.70;;;10.90;99.90;;;;;;5061455;28;20560;-77
2022/12/27 08:05:53;;;;;;;2.73;1.20;;;10.80;99.90;;;;;;5074101;28;20218;-78
2022/12/27 08:08:24;;;;;;;1.87;1.30;;;10.90;99.90;;;;;;5087832;28;20277;-77
2022/12/27 08:10:50;;;;;;;3.87;1.40;;;10.90;99.90;;;;;;5069932;28;20201;-77
2022/12/27 08:13:16;;;;;;;1.90;1.03;;;10.90;99.90;;;;;;5068548;28;20203;-77
2022/12/27 08:15:44;;;;;;;2.93;1.40;;;10.90;99.90;;;;;;5074467;28;20658;-77
2022/12/27 08:18:10;;;;;;;2.33;1.30;;;10.90;99.90;;;;;;5066537;28;20191;-77
2022/12/27 08:20:36;;;;;;;2.03;1.20;;;11.00;99.90;;;;;;5092013;28;20183;-78
2022/12/27 08:23:03;;;;;;;2.03;1.40;;;11.00;99.90;;;;;;5066678;28;20567;-77
2022/12/27 08:25:29;;;;;;;2.00;1.33;;;11.00;99.90;;;;;;5071405;28;20209;-78
2022/12/27 08:28:11;;;;;;;1.60;1.20;;;11.10;99.90;;;;;;5049091;28;20195;-78
2022/12/27 08:30:40;;;;;;;4.07;1.20;;;11.10;99.90;;;;;;5069707;28;20285;-77
2022/12/27 08:33:08;;;;;;;2.03;1.20;;;11.10;99.90;;;;;;5061612;28;20313;-78
2022/12/27 08:35:42;;;;;;;4.87;3.37;;;11.20;99.90;;;;;;5052962;28;20178;-78
2022/12/27 08:38:08;;;;;;;5.03;3.30;;;11.30;99.90;;;;;;5088372;28;20176;-77
2022/12/27 08:40:39;;;;;;;6.70;3.47;;;11.30;99.90;;;;;;5077001;28;20559;-78
2022/12/27 08:43:05;;;;;;;5.10;3.17;;;11.40;99.90;;;;;;5070816;28;20195;-78
2022/12/27 08:45:31;;;;;;;5.37;3.53;;;11.40;99.90;;;;;;5085787;28;20212;-77
2022/12/27 08:47:59;;;;;;;4.33;3.03;;;11.40;99.90;;;;;;5055461;28;20190;-77
2022/12/27 08:50:27;;;;;;;7.70;5.50;;;11.50;99.90;;;;;;5086049;28;20191;-78
2022/12/27 08:52:58;;;;;;;7.40;4.37;;;11.50;99.90;;;;;;5069706;28;20566;-78
2022/12/27 08:55:27;;;;;;;8.70;5.60;;;11.50;99.90;;;;;;5083757;28;20192;-78
2022/12/27 08:58:03;;;;;;;7.60;4.50;;;11.50;99.90;;;;;;5092159;28;20179;-78
2022/12/27 09:00:31;;;;;;;7.13;3.20;;;11.50;99.90;;;;;;5070712;28;20278;-78
2022/12/27 09:02:58;;;;;;;6.63;2.90;;;11.60;99.90;;;;;;5074093;28;20186;-78
2022/12/27 09:05:26;;;;;;;4.80;2.97;;;11.60;99.90;;;;;;5051390;28;20588;-77
2022/12/27 09:07:53;;;;;;;3.33;2.67;;;11.70;99.90;;;;;;5069077;28;20558;-77
2022/12/27 09:10:22;;;;;;;2.93;2.07;;;11.70;99.90;;;;;;5069939;28;20194;-78
2022/12/27 09:12:48;;;;;;;6.87;2.67;;;11.80;99.90;;;;;;5073982;28;20270;-77
2022/12/27 09:15:16;;;;;;;5.20;2.93;;;11.80;99.90;;;;;;5061952;28;20235;-77
2022/12/27 09:17:42;;;;;;;7.40;3.23;;;11.90;99.90;;;;;;5055978;28;20195;-77
2022/12/27 09:20:11;;;;;;;4.63;2.87;;;11.90;99.90;;;;;;5063515;28;20523;-78
2022/12/27 09:22:38;;;;;;;3.87;2.27;;;12.00;99.90;;;;;;5092929;28;21446;-78
2022/12/27 09:25:05;;;;;;;2.87;1.80;;;12.00;99.90;;;;;;5072812;28;20191;-78
2022/12/27 09:27:33;;;;;;;2.40;1.80;;;12.20;99.90;;;;;;5085611;28;20195;-78
2022/12/27 09:30:00;;;;;;;3.03;1.90;;;12.20;99.90;;;;;;5069518;28;20193;-77
2022/12/27 09:32:27;;;;;;;2.47;1.50;;;12.30;99.90;;;;;;5064079;28;20642;-78
2022/12/27 09:34:53;;;;;;;2.57;1.57;;;12.40;99.90;;;;;;5056078;28;20364;-77
2022/12/27 09:37:20;;;;;;;3.10;1.47;;;12.40;99.90;;;;;;5058055;28;20178;-78
2022/12/27 09:39:46;;;;;;;2.57;1.67;;;12.40;99.90;;;;;;5047133;28;20212;-77
2022/12/27 09:42:24;;;;;;;4.27;1.47;;;12.40;99.90;;;;;;5077921;28;20183;-77
2022/12/27 09:45:16;;;;;;;5.47;1.53;;;12.40;99.90;;;;;;5068282;28;20218;-77
2022/12/27 09:47:55;;;;;;;1.87;1.40;;;12.50;99.90;;;;;;5082320;28;20290;-77
2022/12/27 09:50:35;;;;;;;4.57;1.40;;;12.60;99.90;;;;;;5050804;28;20313;-77
2022/12/27 09:53:16;;;;;;;3.20;1.50;;;12.60;99.90;;;;;;5067954;28;20589;-77
2022/12/27 09:55:59;;;;;;;5.13;1.43;;;12.70;99.90;;;;;;5082169;28;20187;-77
2022/12/27 09:58:48;;;;;;;3.00;1.33;;;12.80;99.90;;;;;;5070450;28;20206;-76
2022/12/27 10:01:26;;;;;;;2.60;1.40;;;12.80;99.90;;;;;;5084518;28;20270;-77
2022/12/27 10:03:53;;;;;;;3.23;1.77;;;12.70;99.90;;;;;;5067235;28;20186;-77
2022/12/27 10:06:49;;;;;;;2.37;1.60;;;12.80;99.90;;;;;;5071173;28;20564;-77
2022/12/27 10:09:19;;;;;;;4.20;1.90;;;12.80;99.90;;;;;;5073755;28;20622;-77
2022/12/27 10:12:05;;;;;;;3.70;1.50;;;12.90;99.90;;;;;;5060984;28;20218;-77
2022/12/27 10:15:22;;;;;;;2.00;1.23;;;12.90;99.90;;;;;;5063041;28;20218;-77
2022/12/27 10:18:17;;;;;;;2.73;1.50;;;12.90;99.90;;;;;;5052125;28;20190;-77
2022/12/27 10:21:23;;;;;;;3.10;1.57;;;13.00;99.90;;;;;;5070616;28;20174;-77
2022/12/27 10:24:06;;;;;;;2.67;1.50;;;12.90;99.90;;;;;;5079215;28;20202;-77
2022/12/27 10:26:32;;;;;;;2.23;1.53;;;13.00;99.90;;;;;;5092398;28;20190;-77
2022/12/27 10:29:27;;;;;;;2.67;1.30;;;13.00;99.90;;;;;;5044524;28;20214;-77
2022/12/27 10:31:54;;;;;;;2.80;1.57;;;13.00;99.90;;;;;;5041635;28;20208;-77
2022/12/27 10:34:23;;;;;;;2.97;1.40;;;13.00;99.90;;;;;;5080834;28;20215;-77
2022/12/27 10:36:52;;;;;;;1.57;1.40;;;13.10;99.90;;;;;;5062523;28;20190;-77
2022/12/27 10:39:33;;;;;;;1.97;1.40;;;13.10;99.90;;;;;;5069152;28;20191;-77
2022/12/27 10:42:40;;;;;;;2.00;1.37;;;13.10;99.90;;;;;;5058724;28;20962;-77
2022/12/27 10:45:32;;;;;;;2.20;1.40;;;13.20;99.90;;;;;;5071966;28;20190;-77
2022/12/27 10:48:24;;;;;;;2.73;1.50;;;13.20;99.90;;;;;;5075623;28;20243;-77
2022/12/27 10:51:08;;;;;;;3.87;1.60;;;13.20;99.90;;;;;;5069961;28;20720;-77
2022/12/27 10:53:59;;;;;;;2.50;1.40;;;13.30;99.90;;;;;;5078447;28;20272;-77
2022/12/27 10:56:32;;;;;;;2.67;1.33;;;13.40;99.90;;;;;;5083782;28;20187;-77
2022/12/27 10:59:19;;;;;;;2.33;1.10;;;13.60;99.90;;;;;;5052609;28;20190;-77
2022/12/27 11:02:14;;;;;;;2.20;1.27;;;13.60;99.90;;;;;;5070704;28;20654;-77
2022/12/27 11:04:58;;;;;;;2.10;1.40;;;13.70;99.90;;;;;;5083010;28;20187;-77
2022/12/27 11:07:33;;;;;;;1.77;1.23;;;13.70;99.90;;;;;;5062955;28;20286;-77
2022/12/27 11:10:21;;;;;;;2.43;1.47;;;13.90;99.90;;;;;;5065189;28;20602;-77
2022/12/27 11:13:03;;;;;;;3.77;1.43;;;13.90;99.90;;;;;;5063779;28;20287;-77
2022/12/27 11:15:52;;;;;;;2.40;1.37;;;13.90;99.90;;;;;;5068261;28;20187;-78
2022/12/27 11:18:21;;;;;;;3.53;1.30;;;14.00;99.90;;;;;;5079711;28;20187;-78
2022/12/27 11:20:54;;;;;;;1.83;1.10;;;14.10;99.90;;;;;;5065132;28;20548;-78
2022/12/27 11:23:27;;;;;;;3.50;1.40;;;14.20;99.90;;;;;;5062246;28;20281;-77
2022/12/27 11:26:01;;;;;;;2.03;1.10;;;14.30;99.90;;;;;;5064589;28;20323;-77
2022/12/27 11:28:38;;;;;;;1.93;1.20;;;14.30;99.90;;;;;;5074054;28;20193;-78
2022/12/27 11:31:12;;;;;;;2.07;1.30;;;14.40;99.90;;;;;;5067343;28;20288;-77
2022/12/27 11:33:49;;;;;;;3.60;1.60;;;14.40;99.90;;;;;;5073020;28;20213;-77
2022/12/27 11:36:36;;;;;;;2.90;1.63;;;14.30;99.90;;;;;;5049598;28;20182;-77
2022/12/27 11:39:03;;;;;;;2.93;1.27;;;14.40;99.90;;;;;;5064138;28;20187;-78
2022/12/27 11:41:51;;;;;;;1.70;1.37;;;14.50;99.90;;;;;;5091086;28;20178;-78
2022/12/27 11:44:30;;;;;;;2.03;1.33;;;14.60;99.90;;;;;;5075080;28;20186;-77
2022/12/27 11:47:12;;;;;;;1.80;1.50;;;14.60;99.90;;;;;;5063510;28;20194;-78
2022/12/27 11:50:18;;;;;;;3.23;1.43;;;14.60;99.90;;;;;;5074036;28;20194;-78
2022/12/27 11:52:57;;;;;;;2.87;1.50;;;14.60;99.90;;;;;;5071738;28;20289;-77
2022/12/27 11:56:05;;;;;;;2.63;1.40;;;14.70;99.90;;;;;;5080560;28;20257;-77
2022/12/27 11:59:05;;;;;;;4.60;1.60;;;14.70;99.90;;;;;;5046610;28;20232;-78
2022/12/27 12:02:25;;;;;;;3.17;1.50;;;14.70;99.90;;;;;;5070321;28;20183;-78
2022/12/27 12:05:49;;;;;;;1.90;1.50;;;14.70;99.90;;;;;;5055385;28;20254;-77
2022/12/27 12:08:49;;;;;;;1.97;1.50;;;14.80;99.90;;;;;;5061685;28;20191;-78
2022/12/27 12:12:09;;;;;;;5.53;1.93;;;14.70;99.90;;;;;;5054595;28;20190;-78
2022/12/27 12:15:00;;;;;;;5.10;2.00;;;14.70;99.90;;;;;;5056174;28;20210;-78
2022/12/27 12:18:03;;;;;;;2.87;1.73;;;14.70;99.90;;;;;;5069718;28;20604;-78
2022/12/27 12:20:44;;;;;;;3.40;1.70;;;14.70;99.90;;;;;;5080673;28;20679;-78
2022/12/27 12:24:05;;;;;;;2.00;1.60;;;14.70;99.90;;;;;;5067246;28;20186;-78
2022/12/27 12:27:24;;;;;;;4.83;2.07;;;14.60;99.90;;;;;;5083282;28;20672;-78
2022/12/27 12:30:00;;;;;;;3.53;2.30;;;14.60;99.90;;;;;;5058406;28;20186;-78
2022/12/27 12:33:23;;;;;;;3.97;1.53;;;14.70;99.90;;;;;;5082125;28;20205;-78
2022/12/27 12:36:28;;;;;;;2.30;1.70;;;14.70;99.90;;;;;;5055332;28;20205;-78
2022/12/27 12:39:32;;;;;;;3.40;1.80;;;14.70;99.90;;;;;;5075884;28;20198;-78
2022/12/27 12:42:17;;;;;;;3.27;1.73;;;14.60;99.90;;;;;;5067383;28;20198;-77
2022/12/27 12:44:55;;;;;;;2.37;1.60;;;14.60;99.90;;;;;;5066312;28;20251;-78
2022/12/27 12:48:22;;;;;;;2.97;1.80;;;14.60;99.90;;;;;;5080248;28;20178;-78
2022/12/27 12:51:14;;;;;;;10.10;4.20;;;14.60;99.90;;;;;;5041324;28;20252;-78
2022/12/27 12:54:18;;;;;;;4.83;1.97;;;14.60;99.90;;;;;;5081959;28;20294;-78
2022/12/27 12:57:39;;;;;;;9.07;3.47;;;14.60;99.90;;;;;;5062469;28;20225;-78
2022/12/27 13:00:30;;;;;;;3.07;1.93;;;14.50;99.90;;;;;;5085951;28;20181;-78
2022/12/27 13:03:21;;;;;;;5.27;2.33;;;14.50;99.90;;;;;;5049773;28;20677;-79
2022/12/27 13:06:11;;;;;;;2.67;1.77;;;14.40;99.90;;;;;;5068001;28;20272;-78
2022/12/27 13:08:54;;;;;;;4.47;2.33;;;14.40;99.90;;;;;;5059456;28;20229;-78
2022/12/27 13:11:33;;;;;;;3.17;1.90;;;14.30;99.90;;;;;;5061280;28;20284;-78
2022/12/27 13:14:06;;;;;;;2.23;1.73;;;14.30;99.90;;;;;;5069334;28;20574;-78
2022/12/27 13:17:01;;;;;;;4.23;1.60;;;14.30;99.90;;;;;;5048494;28;20201;-78
2022/12/27 13:19:48;;;;;;;2.43;1.53;;;14.20;99.90;;;;;;5078697;28;20190;-78
2022/12/27 13:23:04;;;;;;;5.43;1.50;;;14.10;99.90;;;;;;5052189;28;20555;-78
2022/12/27 13:25:42;;;;;;;2.93;1.60;;;14.00;99.90;;;;;;5036764;28;20382;-77
2022/12/27 13:28:49;;;;;;;3.67;1.70;;;14.00;99.90;;;;;;5050405;28;20219;-78
2022/12/27 13:32:26;;;;;;;7.47;1.60;;;14.00;99.90;;;;;;5064267;28;20194;-77
2022/12/27 13:35:38;;;;;;;3.10;1.30;;;14.00;99.90;;;;;;5036084;28;20213;-77
2022/12/27 13:38:30;;;;;;;1.60;1.30;;;13.90;99.90;;;;;;5055660;28;20182;-78
2022/12/27 13:41:05;;;;;;;3.30;1.67;;;13.90;99.90;;;;;;5075234;28;20317;-78
2022/12/27 13:44:13;;;;;;;5.93;1.43;;;13.80;99.90;;;;;;5056975;28;20225;-78
2022/12/27 13:47:18;;;;;;;3.77;1.37;;;13.70;99.90;;;;;;5052705;28;20650;-78
2022/12/27 13:50:19;;;;;;;3.17;1.37;;;13.70;99.90;;;;;;5052876;28;20198;-78
2022/12/27 13:52:56;;;;;;;5.13;1.30;;;13.70;99.90;;;;;;5075353;28;20189;-78
2022/12/27 13:55:25;;;;;;;1.90;1.50;;;13.60;99.90;;;;;;5074233;28;20194;-78
2022/12/27 13:58:52;;;;;;;2.40;1.40;;;13.50;99.90;;;;;;5053255;28;20178;-78
2022/12/27 14:01:27;;;;;;;4.10;1.60;;;13.40;99.90;;;;;;5082268;28;20283;-78
2022/12/27 14:04:27;;;;;;;4.33;1.57;;;13.40;99.90;;;;;;5043729;28;20262;-78
2022/12/27 14:07:17;;;;;;;4.07;1.93;;;13.30;99.90;;;;;;5060213;28;20279;-78
2022/12/27 14:10:09;;;;;;;2.63;1.20;;;13.20;99.90;;;;;;5084554;28;20657;-78
2022/12/27 14:12:54;;;;;;;2.03;1.40;;;13.20;99.90;;;;;;5072564;28;20268;-78
2022/12/27 14:15:44;;;;;;;2.97;1.60;;;13.10;99.90;;;;;;5038249;28;20232;-78
2022/12/27 14:19:01;;;;;;;1.87;1.50;;;13.10;99.90;;;;;;5072952;28;20213;-78
2022/12/27 14:22:08;;;;;;;2.90;1.40;;;13.00;99.90;;;;;;5071887;28;20639;-78
2022/12/27 14:25:18;;;;;;;1.73;1.30;;;12.90;99.90;;;;;;5051184;28;20548;-78
2022/12/27 14:28:11;;;;;;;2.20;1.67;;;12.80;99.90;;;;;;5064616;28;20571;-78
2022/12/27 14:31:31;;;;;;;2.17;1.60;;;12.70;99.90;;;;;;5068301;28;20178;-78
2022/12/27 14:34:38;;;;;;;1.80;1.30;;;12.60;99.90;;;;;;5081602;28;20248;-78
2022/12/27 14:37:34;;;;;;;2.90;1.60;;;12.50;99.90;;;;;;5061171;28;20706;-78
2022/12/27 14:40:37;;;;;;;2.37;1.50;;;12.30;99.90;;;;;;5066513;28;20186;-78
2022/12/27 14:43:50;;;;;;;1.87;1.37;;;12.20;99.90;;;;;;5051128;28;20660;-78
2022/12/27 14:47:03;;;;;;;1.97;1.63;;;12.00;99.90;;;;;;5061176;28;20202;-78
2022/12/27 14:49:39;;;;;;;4.67;1.80;;;11.80;99.90;;;;;;5076878;28;20280;-78
2022/12/27 14:52:28;;;;;;;4.50;1.53;;;11.70;99.90;;;;;;5057920;28;20187;-78
2022/12/27 14:55:33;;;;;;;2.53;1.60;;;11.70;99.90;;;;;;5074637;28;20209;-78
2022/12/27 14:58:46;;;;;;;2.47;1.60;;;11.70;99.90;;;;;;5068034;28;20870;-78
2022/12/27 15:01:50;;;;;;;2.00;1.50;;;11.70;99.90;;;;;;5092389;28;20198;-78
2022/12/27 15:05:04;;;;;;;2.97;1.83;;;11.60;99.90;;;;;;5078932;28;20178;-78
2022/12/27 15:08:01;;;;;;;3.17;1.90;;;11.60;99.90;;;;;;5065760;28;20188;-79
2022/12/27 15:10:44;;;;;;;3.17;1.47;;;11.50;99.90;;;;;;5048754;28;20274;-78
2022/12/27 15:13:19;;;;;;;3.43;2.00;;;11.50;99.90;;;;;;5063321;28;20215;-78
2022/12/27 15:16:22;;;;;;;2.03;1.50;;;11.40;99.90;;;;;;5073903;28;20213;-78
2022/12/27 15:19:40;;;;;;;2.60;1.80;;;11.40;99.90;;;;;;5075206;28;20195;-78
2022/12/27 15:22:32;;;;;;;2.97;1.87;;;11.30;99.90;;;;;;5067014;28;20179;-78
2022/12/27 15:25:29;;;;;;;7.17;1.70;;;11.30;99.90;;;;;;5069555;28;20187;-78
2022/12/27 15:28:26;;;;;;;5.37;1.93;;;11.30;99.90;;;;;;5064182;28;20261;-78
2022/12/27 15:31:23;;;;;;;3.20;1.67;;;11.20;99.90;;;;;;5040319;28;20221;-78
2022/12/27 15:34:20;;;;;;;4.20;1.63;;;11.20;99.90;;;;;;5083353;28;20241;-78
2022/12/27 15:36:49;;;;;;;3.77;1.90;;;11.20;99.90;;;;;;5054477;28;20244;-78
2022/12/27 15:39:37;;;;;;;4.93;2.17;;;11.10;99.90;;;;;;5055690;28;20187;-78
2022/12/27 15:42:13;;;;;;;2.30;1.73;;;11.10;99.90;;;;;;5048399;28;20183;-78